createdAt,value
2023-01-19T00:00:05.468Z,57.87
2023-01-19T00:01:09.673Z,57.59
2023-01-19T00:02:13.888Z,57.74
2023-01-19T00:03:18.430Z,57.65
2023-01-19T00:04:24.925Z,57.63
2023-01-19T00:05:29.145Z,57.82
2023-01-19T00:06:33.732Z,57.74
2023-01-19T00:07:38.054Z,58.03
2023-01-19T00:08:42.277Z,58.01
2023-01-19T00:09:46.494Z,57.76
2023-01-19T00:10:50.736Z,57.96
2023-01-19T00:11:54.956Z,58.01
2023-01-19T00:13:00.745Z,58.07
2023-01-19T00:14:05.258Z,57.98
2023-01-19T00:15:09.485Z,57.86
2023-01-19T00:16:13.885Z,57.85
2023-01-19T00:17:18.159Z,57.91
2023-01-19T00:18:22.366Z,57.92
2023-01-19T00:19:26.810Z,57.92
2023-01-19T00:20:31.030Z,58.25
2023-01-19T00:21:35.286Z,58.34
2023-01-19T00:22:39.515Z,58.29
2023-01-19T00:23:43.748Z,58.37
2023-01-19T00:24:47.980Z,58.26
2023-01-19T00:25:52.221Z,58.33
2023-01-19T00:26:56.445Z,58.29
2023-01-19T00:28:03.310Z,58.2
2023-01-19T00:29:07.574Z,58.08
2023-01-19T00:30:11.814Z,58.06
2023-01-19T00:31:16.275Z,58.47
2023-01-19T00:32:20.598Z,58.53
2023-01-19T00:33:24.823Z,58.24
2023-01-19T00:34:29.052Z,58.5
2023-01-19T00:35:35.868Z,58.37
2023-01-19T00:36:40.200Z,58.34
2023-01-19T00:37:44.409Z,58.44
2023-01-19T00:38:48.663Z,58.5
2023-01-19T00:39:52.907Z,58.39
2023-01-19T00:40:57.216Z,58.91
2023-01-19T00:42:01.461Z,58.55
2023-01-19T00:43:05.815Z,58.67
2023-01-19T00:44:10.025Z,58.71
2023-01-19T00:45:14.314Z,58.69
2023-01-19T00:46:18.563Z,59.04
2023-01-19T00:47:22.789Z,58.73
2023-01-19T00:48:27.029Z,58.85
2023-01-19T00:49:31.278Z,58.9
2023-01-19T00:50:35.553Z,59.09
2023-01-19T00:51:39.787Z,58.98
2023-01-19T00:52:44.048Z,58.93
2023-01-19T00:53:48.289Z,58.79
2023-01-19T00:54:52.517Z,58.8
2023-01-19T00:55:56.777Z,58.74
2023-01-19T00:57:01.026Z,59.05
2023-01-19T00:58:05.248Z,59.01
2023-01-19T00:59:09.540Z,59.22
2023-01-19T01:00:13.796Z,59.36
2023-01-19T01:01:18.384Z,59.88
2023-01-19T01:02:23.292Z,59.48
2023-01-19T01:03:28.122Z,59.18
2023-01-19T01:04:32.480Z,59.37
2023-01-19T01:05:36.715Z,59.78
2023-01-19T01:06:40.965Z,59.24
2023-01-19T01:07:45.184Z,59.54
2023-01-19T01:08:49.646Z,59.57
2023-01-19T01:09:53.955Z,59.26
2023-01-19T01:10:58.196Z,59.58
2023-01-19T01:12:02.419Z,59.58
2023-01-19T01:13:28.564Z,59.35
2023-01-19T01:14:33.120Z,59.23
2023-01-19T01:15:37.402Z,59.38
2023-01-19T01:16:41.990Z,59.3
2023-01-19T01:17:46.218Z,59.39
2023-01-19T01:18:50.461Z,59.66
2023-01-19T01:19:54.719Z,59.76
2023-01-19T01:20:59.024Z,59.97
2023-01-19T01:22:03.206Z,59.81
2023-01-19T01:23:07.434Z,59.54
2023-01-19T01:24:11.686Z,59.81
2023-01-19T01:25:15.892Z,59.48
2023-01-19T01:26:20.122Z,59.7
2023-01-19T01:27:24.352Z,59.59
2023-01-19T01:28:28.576Z,59.44
2023-01-19T01:29:32.847Z,59.48
2023-01-19T01:30:37.087Z,59.59
2023-01-19T01:31:41.510Z,59.7
2023-01-19T01:32:45.751Z,59.45
2023-01-19T01:33:50.144Z,59.5
2023-01-19T01:34:54.390Z,59.66
2023-01-19T01:35:58.618Z,59.75
2023-01-19T01:37:02.875Z,60.04
2023-01-19T01:38:07.123Z,59.99
2023-01-19T01:39:11.394Z,59.83
2023-01-19T01:40:15.646Z,60.26
2023-01-19T01:41:26.638Z,60.46
2023-01-19T01:42:30.913Z,60.46
2023-01-19T01:43:35.217Z,60.61
2023-01-19T01:44:39.438Z,59.92
2023-01-19T01:45:43.782Z,59.98
2023-01-19T01:46:48.043Z,60.04
2023-01-19T01:47:52.269Z,59.89
2023-01-19T01:48:56.555Z,60.34
2023-01-19T01:50:00.786Z,59.96
2023-01-19T01:51:05.003Z,59.83
2023-01-19T01:52:09.243Z,60.05
2023-01-19T01:53:14.002Z,60.42
2023-01-19T01:54:18.269Z,60.5
2023-01-19T01:55:22.522Z,59.96
2023-01-19T01:56:26.731Z,59.82
2023-01-19T01:57:30.948Z,60.62
2023-01-19T01:58:35.178Z,60.69
2023-01-19T01:59:39.563Z,60.41
2023-01-19T02:00:46.739Z,60.45
2023-01-19T02:01:52.990Z,60.06
2023-01-19T02:02:57.586Z,60.23
2023-01-19T02:04:01.894Z,60.36
2023-01-19T02:05:06.285Z,60.22
2023-01-19T02:06:10.661Z,60.17
2023-01-19T02:07:14.942Z,60.07
2023-01-19T02:08:19.158Z,60.58
2023-01-19T02:09:23.394Z,60.04
2023-01-19T02:10:27.612Z,60.63
2023-01-19T02:11:31.849Z,60.01
2023-01-19T02:12:36.077Z,60.13
2023-01-19T02:13:40.290Z,60.29
2023-01-19T02:14:44.553Z,60.89
2023-01-19T02:15:48.760Z,60.15
2023-01-19T02:16:55.407Z,60.31
2023-01-19T02:17:59.648Z,60.17
2023-01-19T02:19:03.900Z,60.23
2023-01-19T02:20:08.130Z,60.19
2023-01-19T02:21:15.513Z,60.05
2023-01-19T02:22:19.751Z,60.76
2023-01-19T02:23:23.990Z,60.54
2023-01-19T02:24:28.295Z,60.56
2023-01-19T02:25:32.516Z,60.68
2023-01-19T02:26:36.782Z,60.57
2023-01-19T02:27:41.023Z,60.46
2023-01-19T02:28:45.276Z,60.89
2023-01-19T02:29:49.622Z,60.78
2023-01-19T02:30:54.109Z,61
2023-01-19T02:31:58.346Z,60.77
2023-01-19T02:33:03.958Z,60.46
2023-01-19T02:34:08.168Z,60.78
2023-01-19T02:35:12.411Z,60.63
2023-01-19T02:36:16.811Z,60.41
2023-01-19T02:37:21.047Z,60.07
2023-01-19T02:38:25.269Z,60.98
2023-01-19T02:39:29.533Z,60.61
2023-01-19T02:40:33.784Z,60.18
2023-01-19T02:41:38.118Z,60.55
2023-01-19T02:42:42.446Z,60.66
2023-01-19T02:43:46.677Z,61.05
2023-01-19T02:44:50.900Z,60.54
2023-01-19T02:45:55.216Z,61.02
2023-01-19T02:46:59.429Z,60.65
2023-01-19T02:48:03.682Z,60.83
2023-01-19T02:49:07.936Z,60.73
2023-01-19T02:50:12.289Z,60.76
2023-01-19T02:51:16.487Z,61.14
2023-01-19T02:52:20.821Z,60.51
2023-01-19T02:53:25.064Z,60.79
2023-01-19T02:54:29.275Z,61.32
2023-01-19T02:55:33.765Z,60.74
2023-01-19T02:56:37.992Z,60.73
2023-01-19T02:57:42.194Z,60.89
2023-01-19T02:58:46.417Z,60.75
2023-01-19T02:59:50.634Z,60.75
2023-01-19T03:00:55.048Z,60.75
2023-01-19T03:01:59.452Z,60.57
2023-01-19T03:03:05.346Z,61.05
2023-01-19T03:04:09.664Z,61.29
2023-01-19T03:05:14.147Z,60.82
2023-01-19T03:06:18.394Z,60.83
2023-01-19T03:07:22.590Z,60.82
2023-01-19T03:08:26.868Z,60.89
2023-01-19T03:09:31.127Z,60.93
2023-01-19T03:10:35.371Z,60.56
2023-01-19T03:11:39.565Z,61.29
2023-01-19T03:12:43.942Z,61.39
2023-01-19T03:13:48.175Z,61.06
2023-01-19T03:14:52.387Z,61.24
2023-01-19T03:15:56.922Z,61.15
2023-01-19T03:17:01.274Z,61.02
2023-01-19T03:18:05.473Z,60.86
2023-01-19T03:19:09.836Z,61.21
2023-01-19T03:20:14.081Z,61.36
2023-01-19T03:21:18.413Z,61.43
2023-01-19T03:22:22.685Z,61.16
2023-01-19T03:23:29.552Z,61.54
2023-01-19T03:24:34.237Z,60.92
2023-01-19T03:25:39.089Z,61.09
2023-01-19T03:26:43.490Z,61.21
2023-01-19T03:27:47.889Z,61.4
2023-01-19T03:28:52.095Z,60.94
2023-01-19T03:29:56.352Z,60.89
2023-01-19T03:31:00.760Z,60.88
2023-01-19T03:32:04.990Z,61.87
2023-01-19T03:33:09.286Z,61.42
2023-01-19T03:34:13.780Z,60.95
2023-01-19T03:35:17.985Z,60.99
2023-01-19T03:36:22.193Z,61.48
2023-01-19T03:37:26.474Z,61.27
2023-01-19T03:38:30.708Z,61.35
2023-01-19T03:39:34.927Z,61.29
2023-01-19T03:40:39.134Z,61.16
2023-01-19T03:41:43.351Z,61.11
2023-01-19T03:42:47.572Z,61.49
2023-01-19T03:43:51.793Z,61.03
2023-01-19T03:44:56.010Z,61.17
2023-01-19T03:46:00.409Z,61.65
2023-01-19T03:47:04.642Z,61.14
2023-01-19T03:48:08.869Z,61.13
2023-01-19T03:49:13.087Z,61.28
2023-01-19T03:50:17.305Z,61.03
2023-01-19T03:51:21.520Z,61.36
2023-01-19T03:52:25.802Z,60.98
2023-01-19T03:53:30.012Z,61.43
2023-01-19T03:54:34.435Z,61.22
2023-01-19T03:55:38.732Z,61.4
2023-01-19T03:56:42.952Z,61.72
2023-01-19T03:57:47.240Z,61.13
2023-01-19T03:58:52.473Z,61.04
2023-01-19T03:59:58.958Z,60.75
2023-01-19T04:01:03.424Z,61.39
2023-01-19T04:02:10.343Z,61.54
2023-01-19T04:03:14.707Z,61.79
2023-01-19T04:04:18.992Z,61.47
2023-01-19T04:05:23.233Z,61.59
2023-01-19T04:06:27.495Z,61.69
2023-01-19T04:07:31.725Z,61.52
2023-01-19T04:08:35.995Z,61.11
2023-01-19T04:09:40.234Z,61.87
2023-01-19T04:10:44.466Z,61.67
2023-01-19T04:11:48.672Z,60.98
2023-01-19T04:12:52.939Z,61.38
2023-01-19T04:13:57.255Z,61.92
2023-01-19T04:15:01.488Z,61.54
2023-01-19T04:16:05.888Z,61.46
2023-01-19T04:17:10.152Z,61.46
2023-01-19T04:18:14.429Z,61.92
2023-01-19T04:19:18.649Z,61.12
2023-01-19T04:20:22.910Z,61.69
2023-01-19T04:21:27.126Z,61.9
2023-01-19T04:22:31.334Z,61.6
2023-01-19T04:23:36.609Z,61.99
2023-01-19T04:24:41.016Z,61.93
2023-01-19T04:25:45.243Z,61.67
2023-01-19T04:26:49.470Z,61.61
2023-01-19T04:27:53.677Z,61.77
2023-01-19T04:28:57.898Z,61.22
2023-01-19T04:30:02.108Z,61.29
2023-01-19T04:31:06.590Z,61.44
2023-01-19T04:32:10.859Z,61.67
2023-01-19T04:33:15.127Z,61.56
2023-01-19T04:34:19.353Z,61.7
2023-01-19T04:35:23.590Z,61.34
2023-01-19T04:36:27.834Z,61.66
2023-01-19T04:37:32.097Z,61.19
2023-01-19T04:38:36.356Z,61.58
2023-01-19T04:39:40.829Z,61.62
2023-01-19T04:40:45.061Z,61.07
2023-01-19T04:41:49.329Z,61.82
2023-01-19T04:42:53.597Z,61.63
2023-01-19T04:43:57.863Z,61.79
2023-01-19T04:45:02.098Z,61.83
2023-01-19T04:46:06.559Z,61.61
2023-01-19T04:47:10.804Z,61.45
2023-01-19T04:48:15.107Z,61.79
2023-01-19T04:49:19.364Z,61.82
2023-01-19T04:50:23.593Z,61.04
2023-01-19T04:51:27.817Z,61.68
2023-01-19T04:52:32.048Z,61.88
2023-01-19T04:53:36.325Z,62.07
2023-01-19T04:54:40.771Z,61.54
2023-01-19T04:55:44.972Z,62.15
2023-01-19T04:56:49.187Z,61.88
2023-01-19T04:57:53.430Z,61.71
2023-01-19T04:58:57.662Z,61.95
2023-01-19T05:00:01.898Z,61.94
2023-01-19T05:01:06.317Z,62.14
2023-01-19T05:02:10.754Z,62.03
2023-01-19T05:03:15.293Z,61.19
2023-01-19T05:04:20.860Z,61.2
2023-01-19T05:05:25.102Z,58.72
2023-01-19T05:06:29.349Z,58.18
2023-01-19T05:07:33.554Z,58.58
2023-01-19T05:08:37.770Z,57.33
2023-01-19T05:09:42.011Z,56.63
2023-01-19T05:10:46.276Z,57
2023-01-19T05:11:50.619Z,56.28
2023-01-19T05:12:54.863Z,56.13
2023-01-19T05:13:59.080Z,56.21
2023-01-19T05:15:03.323Z,55.9
2023-01-19T05:16:07.675Z,55.71
2023-01-19T05:17:11.923Z,55.57
2023-01-19T05:18:16.204Z,55.44
2023-01-19T05:19:20.476Z,55.6
2023-01-19T05:20:24.675Z,55.15
2023-01-19T05:21:28.897Z,55.24
2023-01-19T05:22:33.100Z,55.4
2023-01-19T05:23:37.329Z,55.34
2023-01-19T05:24:41.609Z,55.18
2023-01-19T05:25:45.976Z,55.31
2023-01-19T05:26:50.243Z,55.29
2023-01-19T05:27:54.490Z,55.11
2023-01-19T05:28:58.864Z,55.22
2023-01-19T05:30:03.095Z,55.05
2023-01-19T05:31:07.775Z,55.29
2023-01-19T05:32:12.081Z,55.16
2023-01-19T05:33:16.274Z,55.11
2023-01-19T05:34:20.536Z,54.95
2023-01-19T05:35:37.703Z,54.65
2023-01-19T05:36:41.933Z,54.51
2023-01-19T05:37:46.226Z,54.17
2023-01-19T05:38:50.474Z,53.99
2023-01-19T05:39:54.721Z,53.94
2023-01-19T05:40:59.008Z,53.67
2023-01-19T05:42:03.300Z,53.56
2023-01-19T05:43:07.632Z,53.27
2023-01-19T05:44:11.895Z,53.13
2023-01-19T05:45:16.182Z,53.12
2023-01-19T05:46:20.548Z,53.07
2023-01-19T05:47:24.973Z,52.94
2023-01-19T05:48:29.222Z,52.81
2023-01-19T05:49:33.507Z,52.73
2023-01-19T05:50:37.734Z,52.69
2023-01-19T05:51:41.986Z,52.62
2023-01-19T05:52:46.207Z,52.5
2023-01-19T05:53:50.465Z,52.56
2023-01-19T05:54:54.703Z,52.46
2023-01-19T05:56:01.186Z,52.35
2023-01-19T05:57:05.417Z,52.26
2023-01-19T05:58:09.676Z,52.32
2023-01-19T05:59:13.895Z,52.26
2023-01-19T06:00:18.111Z,52.2
2023-01-19T06:01:22.538Z,52.22
2023-01-19T06:02:27.049Z,52.14
2023-01-19T06:03:31.469Z,51.94
2023-01-19T06:04:35.721Z,52.09
2023-01-19T06:05:39.970Z,52.07
2023-01-19T06:06:44.202Z,52.03
2023-01-19T06:07:48.446Z,52.04
2023-01-19T06:08:52.723Z,52.05
2023-01-19T06:09:56.958Z,52.16
2023-01-19T06:11:01.185Z,52.12
2023-01-19T06:12:07.917Z,52.18
2023-01-19T06:13:12.175Z,52.3
2023-01-19T06:14:16.453Z,52.41
2023-01-19T06:15:20.667Z,52.49
2023-01-19T06:16:25.061Z,52.35
2023-01-19T06:17:29.673Z,52.46
2023-01-19T06:18:33.874Z,52.52
2023-01-19T06:19:38.123Z,52.62
2023-01-19T06:20:42.365Z,52.67
2023-01-19T06:21:46.655Z,52.69
2023-01-19T06:22:50.875Z,52.75
2023-01-19T06:23:55.101Z,52.91
2023-01-19T06:24:59.390Z,52.83
2023-01-19T06:26:03.643Z,52.84
2023-01-19T06:27:07.928Z,52.92
2023-01-19T06:28:12.151Z,52.96
2023-01-19T06:29:16.361Z,53.06
2023-01-19T06:30:20.573Z,52.99
2023-01-19T06:31:25.066Z,53.12
2023-01-19T06:32:29.332Z,53.08
2023-01-19T06:33:33.546Z,53.12
2023-01-19T06:34:37.854Z,53.25
2023-01-19T06:35:42.268Z,53.27
2023-01-19T06:36:46.692Z,53.32
2023-01-19T06:37:50.952Z,53.45
2023-01-19T06:38:55.188Z,53.64
2023-01-19T06:39:59.414Z,53.62
2023-01-19T06:41:03.691Z,53.63
2023-01-19T06:42:07.888Z,53.55
2023-01-19T06:43:12.223Z,53.67
2023-01-19T06:44:16.465Z,53.6
2023-01-19T06:45:20.726Z,53.55
2023-01-19T06:46:24.973Z,53.65
2023-01-19T06:47:29.215Z,53.65
2023-01-19T06:48:33.538Z,53.7
2023-01-19T06:49:37.768Z,53.56
2023-01-19T06:50:42.025Z,53.56
2023-01-19T06:51:46.251Z,53.58
2023-01-19T06:52:50.506Z,53.55
2023-01-19T06:53:54.827Z,53.6
2023-01-19T06:54:59.089Z,53.65
2023-01-19T06:56:05.098Z,53.78
2023-01-19T06:57:09.576Z,53.47
2023-01-19T06:58:13.785Z,53.2
2023-01-19T06:59:18.053Z,53
2023-01-19T07:00:22.342Z,52.87
2023-01-19T07:01:27.009Z,52.66
2023-01-19T07:02:32.084Z,52.32
2023-01-19T07:03:36.570Z,52.15
2023-01-19T07:04:40.833Z,51.94
2023-01-19T07:05:45.102Z,51.84
2023-01-19T07:06:49.366Z,51.75
2023-01-19T07:07:53.692Z,51.64
2023-01-19T07:08:58.000Z,51.61
2023-01-19T07:10:02.253Z,51.56
2023-01-19T07:11:34.072Z,51.5
2023-01-19T07:12:38.747Z,51.38
2023-01-19T07:13:42.973Z,51.51
2023-01-19T07:14:47.275Z,51.41
2023-01-19T07:15:51.572Z,51.49
2023-01-19T07:16:56.023Z,51.63
2023-01-19T07:18:00.267Z,51.53
2023-01-19T07:19:04.477Z,51.67
2023-01-19T07:20:08.709Z,51.63
2023-01-19T07:21:13.038Z,51.71
2023-01-19T07:22:17.282Z,51.79
2023-01-19T07:23:21.495Z,51.84
2023-01-19T07:24:25.742Z,51.98
2023-01-19T07:25:29.958Z,51.95
2023-01-19T07:26:34.410Z,51.94
2023-01-19T07:27:38.648Z,52.03
2023-01-19T07:28:42.886Z,52.02
2023-01-19T07:29:47.115Z,52.07
2023-01-19T07:30:51.642Z,52.11
2023-01-19T07:31:56.013Z,52.06
2023-01-19T07:33:01.899Z,52.21
2023-01-19T07:34:06.304Z,52.13
2023-01-19T07:35:10.609Z,52.29
2023-01-19T07:36:14.812Z,52.29
2023-01-19T07:37:19.109Z,52.43
2023-01-19T07:38:23.345Z,52.39
2023-01-19T07:39:27.596Z,52.53
2023-01-19T07:40:31.838Z,52.5
2023-01-19T07:41:36.058Z,52.41
2023-01-19T07:42:40.345Z,52.59
2023-01-19T07:43:44.577Z,52.56
2023-01-19T07:44:48.993Z,52.66
2023-01-19T07:45:53.311Z,52.66
2023-01-19T07:46:57.561Z,52.79
2023-01-19T07:48:01.850Z,52.79
2023-01-19T07:49:06.132Z,52.83
2023-01-19T07:50:12.610Z,52.87
2023-01-19T07:51:16.834Z,53.04
2023-01-19T07:52:21.079Z,52.89
2023-01-19T07:53:25.339Z,52.94
2023-01-19T07:54:29.579Z,52.99
2023-01-19T07:55:33.825Z,52.82
2023-01-19T07:56:38.038Z,52.95
2023-01-19T07:57:42.320Z,53.03
2023-01-19T07:58:46.590Z,52.78
2023-01-19T07:59:50.846Z,52.89
2023-01-19T08:00:55.458Z,52.83
2023-01-19T08:02:00.924Z,52.98
2023-01-19T08:03:06.227Z,53.13
2023-01-19T08:04:10.833Z,53.21
2023-01-19T08:05:15.078Z,52.95
2023-01-19T08:06:19.486Z,52.84
2023-01-19T08:07:23.796Z,52.39
2023-01-19T08:08:28.040Z,52.27
2023-01-19T08:09:32.294Z,52.22
2023-01-19T08:10:38.767Z,52.07
2023-01-19T08:11:44.013Z,51.75
2023-01-19T08:12:48.537Z,51.52
2023-01-19T08:13:52.772Z,51.58
2023-01-19T08:14:57.076Z,51.46
2023-01-19T08:16:01.416Z,51.45
2023-01-19T08:17:05.660Z,51.37
2023-01-19T08:18:09.944Z,51.38
2023-01-19T08:19:14.155Z,51.28
2023-01-19T08:20:18.365Z,51.32
2023-01-19T08:21:22.644Z,51.4
2023-01-19T08:22:26.860Z,51.4
2023-01-19T08:23:31.084Z,51.38
2023-01-19T08:24:35.331Z,51.41
2023-01-19T08:25:39.583Z,51.53
2023-01-19T08:26:43.823Z,51.46
2023-01-19T08:27:48.285Z,51.5
2023-01-19T08:28:52.559Z,51.59
2023-01-19T08:29:56.831Z,51.61
2023-01-19T08:31:24.575Z,51.8
2023-01-19T08:32:29.261Z,51.65
2023-01-19T08:33:33.558Z,51.82
2023-01-19T08:34:37.778Z,51.81
2023-01-19T08:35:45.133Z,51.75
2023-01-19T08:36:49.327Z,51.77
2023-01-19T08:37:53.560Z,51.82
2023-01-19T08:38:57.792Z,51.85
2023-01-19T08:40:02.051Z,52.04
2023-01-19T08:41:06.547Z,51.78
2023-01-19T08:42:10.808Z,51.78
2023-01-19T08:43:15.038Z,51.92
2023-01-19T08:44:19.277Z,51.82
2023-01-19T08:45:23.522Z,52.11
2023-01-19T08:46:27.927Z,51.93
2023-01-19T08:47:32.400Z,52.16
2023-01-19T08:48:38.199Z,52.09
2023-01-19T08:49:43.901Z,52.03
2023-01-19T08:50:48.161Z,52.39
2023-01-19T08:51:52.446Z,52.2
2023-01-19T08:52:56.699Z,52.25
2023-01-19T08:54:01.085Z,52.12
2023-01-19T08:55:05.323Z,52.18
2023-01-19T08:56:09.565Z,52.23
2023-01-19T08:57:13.813Z,52.09
2023-01-19T08:58:18.062Z,52.27
2023-01-19T08:59:22.329Z,52.12
2023-01-19T09:00:26.590Z,51.74
2023-01-19T09:01:31.260Z,51.59
2023-01-19T09:02:35.948Z,51.52
2023-01-19T09:03:40.240Z,51.23
2023-01-19T09:04:44.510Z,50.91
2023-01-19T09:05:48.734Z,50.86
2023-01-19T09:06:52.970Z,50.59
2023-01-19T09:07:57.197Z,50.42
2023-01-19T09:09:01.581Z,50.42
2023-01-19T09:10:06.158Z,50.24
2023-01-19T09:11:10.395Z,50.21
2023-01-19T09:12:14.622Z,50.1
2023-01-19T09:13:18.868Z,50.06
2023-01-19T09:14:23.283Z,50.01
2023-01-19T09:15:27.549Z,50.02
2023-01-19T09:16:31.792Z,50.06
2023-01-19T09:17:36.023Z,50.15
2023-01-19T09:18:40.270Z,50.1
2023-01-19T09:19:44.521Z,50.12
2023-01-19T09:20:48.727Z,50.11
2023-01-19T09:21:55.255Z,50.23
2023-01-19T09:22:59.491Z,50.25
2023-01-19T09:24:03.735Z,50.44
2023-01-19T09:25:08.004Z,50.37
2023-01-19T09:26:12.289Z,50.43
2023-01-19T09:27:16.735Z,50.52
2023-01-19T09:28:20.993Z,50.55
2023-01-19T09:29:25.302Z,50.65
2023-01-19T09:30:29.576Z,50.72
2023-01-19T09:31:34.025Z,50.75
2023-01-19T09:32:38.299Z,50.75
2023-01-19T09:33:42.539Z,50.83
2023-01-19T09:34:46.801Z,50.84
2023-01-19T09:35:51.019Z,50.93
2023-01-19T09:36:55.290Z,51.02
2023-01-19T09:38:00.499Z,50.96
2023-01-19T09:39:04.872Z,51.12
2023-01-19T09:40:11.871Z,51.11
2023-01-19T09:41:16.109Z,51.28
2023-01-19T09:42:20.330Z,51.26
2023-01-19T09:43:24.558Z,51.22
2023-01-19T09:44:28.806Z,51.31
2023-01-19T09:45:33.049Z,51.27
2023-01-19T09:46:37.606Z,51.4
2023-01-19T09:47:41.889Z,51.4
2023-01-19T09:48:46.098Z,51.52
2023-01-19T09:49:50.402Z,51.48
2023-01-19T09:50:54.641Z,51.5
2023-01-19T09:51:58.930Z,51.71
2023-01-19T09:53:04.126Z,51.78
2023-01-19T09:54:08.483Z,51.88
2023-01-19T09:55:12.801Z,51.71
2023-01-19T09:56:19.427Z,51.93
2023-01-19T09:57:23.662Z,51.88
2023-01-19T09:58:27.899Z,51.94
2023-01-19T09:59:32.153Z,51.91
2023-01-19T10:00:36.506Z,51.82
2023-01-19T10:01:40.890Z,51.79
2023-01-19T10:02:45.467Z,51.95
2023-01-19T10:03:49.744Z,52.05
2023-01-19T10:04:53.976Z,52.02
2023-01-19T10:05:58.203Z,52.15
2023-01-19T10:07:02.454Z,51.89
2023-01-19T10:08:06.698Z,52.02
2023-01-19T10:09:10.987Z,51.78
2023-01-19T10:10:15.301Z,52.04
2023-01-19T10:11:19.645Z,51.87
2023-01-19T10:12:23.905Z,51.97
2023-01-19T10:13:28.162Z,52.08
2023-01-19T10:14:32.788Z,51.96
2023-01-19T10:15:37.079Z,51.93
2023-01-19T10:16:41.716Z,51.84
2023-01-19T10:17:45.939Z,51.95
2023-01-19T10:18:50.221Z,51.89
2023-01-19T10:19:54.596Z,51.75
2023-01-19T10:20:59.411Z,52
2023-01-19T10:22:03.898Z,51.83
2023-01-19T10:23:08.223Z,52.01
2023-01-19T10:24:12.522Z,51.63
2023-01-19T10:25:16.863Z,51.68
2023-01-19T10:26:21.235Z,51.17
2023-01-19T10:27:27.217Z,50.96
2023-01-19T10:28:31.487Z,50.85
2023-01-19T10:29:35.783Z,50.63
2023-01-19T10:30:40.129Z,50.42
2023-01-19T10:31:44.907Z,50.25
2023-01-19T10:32:49.241Z,49.99
2023-01-19T10:33:53.528Z,49.89
2023-01-19T10:34:57.829Z,49.79
2023-01-19T10:36:02.186Z,49.87
2023-01-19T10:37:06.431Z,49.7
2023-01-19T10:38:10.714Z,49.73
2023-01-19T10:39:15.053Z,49.63
2023-01-19T10:40:19.471Z,49.68
2023-01-19T10:41:23.836Z,49.84
2023-01-19T10:42:28.189Z,49.8
2023-01-19T10:43:32.591Z,49.84
2023-01-19T10:44:37.009Z,49.9
2023-01-19T10:45:41.433Z,49.97
2023-01-19T10:46:45.822Z,50.07
2023-01-19T10:47:50.128Z,50.09
2023-01-19T10:48:54.678Z,50.16
2023-01-19T10:49:59.031Z,50.26
2023-01-19T10:51:06.543Z,50.08
2023-01-19T10:52:10.856Z,50.15
2023-01-19T10:53:15.263Z,50.46
2023-01-19T10:54:19.727Z,50.53
2023-01-19T10:55:24.039Z,50.63
2023-01-19T10:56:28.434Z,50.82
2023-01-19T10:57:32.872Z,50.72
2023-01-19T10:58:37.212Z,50.68
2023-01-19T10:59:41.500Z,50.86
2023-01-19T11:00:45.954Z,50.77
2023-01-19T11:01:51.116Z,51.01
2023-01-19T11:02:55.736Z,50.71
2023-01-19T11:04:00.128Z,50.84
2023-01-19T11:05:04.513Z,47.99
2023-01-19T11:06:08.790Z,48.45
2023-01-19T11:07:13.033Z,47.57
2023-01-19T11:08:17.293Z,46.43
2023-01-19T11:09:21.914Z,47.4
2023-01-19T11:10:26.269Z,46.71
2023-01-19T11:11:30.543Z,46.33
2023-01-19T11:12:37.037Z,46.2
2023-01-19T11:13:41.356Z,45.48
2023-01-19T11:14:45.682Z,45.3
2023-01-19T11:15:49.922Z,44.84
2023-01-19T11:16:54.236Z,44.88
2023-01-19T11:17:58.678Z,45.44
2023-01-19T11:19:03.044Z,46.21
2023-01-19T11:20:07.304Z,46.75
2023-01-19T11:21:11.580Z,47.06
2023-01-19T11:22:15.824Z,47.36
2023-01-19T11:23:20.209Z,47.53
2023-01-19T11:24:24.446Z,47.36
2023-01-19T11:25:28.680Z,47.83
2023-01-19T11:26:32.984Z,47.78
2023-01-19T11:27:37.217Z,47.8
2023-01-19T11:28:43.596Z,48.19
2023-01-19T11:29:49.151Z,47.59
2023-01-19T11:30:53.518Z,47.75
2023-01-19T11:31:58.015Z,47.98
2023-01-19T11:33:03.529Z,47.49
2023-01-19T11:34:07.829Z,47.55
2023-01-19T11:35:12.080Z,47.35
2023-01-19T11:36:16.302Z,47.1
2023-01-19T11:37:20.541Z,46.98
2023-01-19T11:38:24.826Z,46.87
2023-01-19T11:39:29.154Z,47.04
2023-01-19T11:40:33.487Z,46.98
2023-01-19T11:41:37.727Z,46.94
2023-01-19T11:42:41.943Z,47.09
2023-01-19T11:43:51.396Z,46.95
2023-01-19T11:44:55.668Z,47.04
2023-01-19T11:46:00.179Z,47.06
2023-01-19T11:47:04.496Z,47.19
2023-01-19T11:48:08.732Z,47.38
2023-01-19T11:49:13.099Z,47.29
2023-01-19T11:50:17.504Z,47.37
2023-01-19T11:51:21.715Z,47.47
2023-01-19T11:52:25.960Z,47.5
2023-01-19T11:53:30.302Z,47.6
2023-01-19T11:54:34.523Z,47.8
2023-01-19T11:55:38.744Z,47.74
2023-01-19T11:56:42.988Z,47.77
2023-01-19T11:57:47.262Z,48.03
2023-01-19T11:58:51.500Z,48.03
2023-01-19T11:59:55.741Z,48.02
2023-01-19T12:01:00.174Z,48.16
2023-01-19T12:02:04.528Z,48.23
2023-01-19T12:03:09.044Z,48.21
2023-01-19T12:04:13.337Z,48.38
2023-01-19T12:05:17.563Z,48.5
2023-01-19T12:06:21.788Z,48.51
2023-01-19T12:07:26.005Z,48.52
2023-01-19T12:08:30.235Z,48.6
2023-01-19T12:09:34.578Z,48.74
2023-01-19T12:10:41.105Z,48.66
2023-01-19T12:11:45.371Z,48.67
2023-01-19T12:12:49.592Z,48.92
2023-01-19T12:13:55.746Z,48.95
2023-01-19T12:15:00.008Z,49.03
2023-01-19T12:16:04.262Z,48.94
2023-01-19T12:17:08.490Z,48.94
2023-01-19T12:18:12.731Z,49.15
2023-01-19T12:19:16.992Z,49.15
2023-01-19T12:20:21.291Z,49.29
2023-01-19T12:21:25.678Z,49.24
2023-01-19T12:22:29.928Z,49.43
2023-01-19T12:23:34.123Z,49.32
2023-01-19T12:24:38.518Z,49.46
2023-01-19T12:25:43.013Z,49.51
2023-01-19T12:26:47.217Z,49.69
2023-01-19T12:27:51.486Z,49.88
2023-01-19T12:28:55.732Z,49.65
2023-01-19T12:30:00.001Z,49.9
2023-01-19T12:31:06.993Z,50.06
2023-01-19T12:32:11.230Z,50.05
2023-01-19T12:33:15.478Z,49.68
2023-01-19T12:34:19.699Z,49.85
2023-01-19T12:35:23.933Z,49.74
2023-01-19T12:36:28.145Z,49.72
2023-01-19T12:37:32.531Z,50.17
2023-01-19T12:38:36.778Z,49.85
2023-01-19T12:39:40.991Z,49.67
2023-01-19T12:40:45.197Z,49.99
2023-01-19T12:41:49.445Z,49.75
2023-01-19T12:42:53.686Z,49.95
2023-01-19T12:43:57.948Z,49.9
2023-01-19T12:45:02.203Z,49.93
2023-01-19T12:46:06.638Z,49.95
2023-01-19T12:47:10.919Z,49.9
2023-01-19T12:48:15.147Z,50.05
2023-01-19T12:49:19.400Z,49.91
2023-01-19T12:50:23.624Z,49.98
2023-01-19T12:51:27.921Z,50
2023-01-19T12:52:32.191Z,49.92
2023-01-19T12:53:36.384Z,50.04
2023-01-19T12:54:40.616Z,49.85
2023-01-19T12:55:44.836Z,50.13
2023-01-19T12:56:49.055Z,50.17
2023-01-19T12:57:53.317Z,50.03
2023-01-19T12:58:57.519Z,49.86
2023-01-19T13:00:01.739Z,50.2
2023-01-19T13:01:06.241Z,49.89
2023-01-19T13:02:10.930Z,49.89
2023-01-19T13:03:15.241Z,49.96
2023-01-19T13:04:19.474Z,49.92
2023-01-19T13:05:23.705Z,50.07
2023-01-19T13:06:27.968Z,50.13
2023-01-19T13:07:32.211Z,50.1
2023-01-19T13:08:36.471Z,50.16
2023-01-19T13:09:40.755Z,50.1
2023-01-19T13:10:45.026Z,49.95
2023-01-19T13:12:02.130Z,50.07
2023-01-19T13:13:06.393Z,50.38
2023-01-19T13:14:10.715Z,50.22
2023-01-19T13:15:14.946Z,49.65
2023-01-19T13:16:19.554Z,49.37
2023-01-19T13:17:23.845Z,49.29
2023-01-19T13:18:28.069Z,48.89
2023-01-19T13:19:32.291Z,48.79
2023-01-19T13:20:36.551Z,48.74
2023-01-19T13:21:42.393Z,48.5
2023-01-19T13:22:48.507Z,48.46
2023-01-19T13:23:52.797Z,48.33
2023-01-19T13:24:59.537Z,48.31
2023-01-19T13:26:03.871Z,48.29
2023-01-19T13:27:08.185Z,48.52
2023-01-19T13:28:12.474Z,48.4
2023-01-19T13:29:16.747Z,48.52
2023-01-19T13:30:21.174Z,48.55
2023-01-19T13:31:25.546Z,48.65
2023-01-19T13:32:29.796Z,48.83
2023-01-19T13:33:34.050Z,48.98
2023-01-19T13:34:38.316Z,48.93
2023-01-19T13:35:42.535Z,49.01
2023-01-19T13:36:46.766Z,49.05
2023-01-19T13:37:51.027Z,49.12
2023-01-19T13:38:55.257Z,49.32
2023-01-19T13:40:00.316Z,49.42
2023-01-19T13:41:04.790Z,49.42
2023-01-19T13:42:09.012Z,49.55
2023-01-19T13:43:13.241Z,49.6
2023-01-19T13:44:17.569Z,49.71
2023-01-19T13:45:21.791Z,49.77
2023-01-19T13:46:26.369Z,49.86
2023-01-19T13:47:30.615Z,49.95
2023-01-19T13:48:34.864Z,50
2023-01-19T13:49:39.162Z,50.16
2023-01-19T13:50:43.529Z,50.21
2023-01-19T13:51:50.461Z,50.24
2023-01-19T13:52:54.687Z,50.4
2023-01-19T13:53:58.956Z,50.4